Time;durP1;ratioP1;P1;durP2;ratioP2;P2;SDS_P1;SDS_P2;PMS_P1;PMS_P2;Temp;Humidity;BMP_temperature;BMP_pressure;BME280_temperature;BME280_humidity;BME280_pressure;Samples;Min_cycle;Max_cycle;Signal;HPM_P1;HPM_P2
2023/10/19 00:00:44;;;;;;;42.25;17.55;;;;;;;12.48;100.00;97462.03;5039185;28;20530;-47
2023/10/19 00:03:11;;;;;;;38.40;14.98;;;;;;;12.47;100.00;97465.25;5030381;28;20507;-48
2023/10/19 00:05:39;;;;;;;37.53;17.00;;;;;;;12.47;100.00;97463.25;5029126;28;20045;-47
2023/10/19 00:08:22;;;;;;;40.17;15.40;;;;;;;12.47;100.00;97466.03;5011862;28;20045;-47
2023/10/19 00:11:07;;;;;;;39.50;15.38;;;;;;;12.47;100.00;97460.47;5029968;28;20042;-50
2023/10/19 00:13:35;;;;;;;36.50;15.80;;;;;;;12.47;100.00;97456.94;5049140;28;20044;-47
2023/10/19 00:16:11;;;;;;;32.10;14.77;;;;;;;12.47;100.00;97452.16;5029849;28;20053;-46
2023/10/19 00:18:42;;;;;;;31.63;13.57;;;;;;;12.46;100.00;97452.59;5028754;28;20064;-46
2023/10/19 00:23:57;;;;;;;31.23;11.68;;;;;;;12.44;100.00;97444.72;5024824;28;20404;-46
2023/10/19 00:26:26;;;;;;;24.25;10.82;;;;;;;12.43;100.00;97443.16;5026230;28;20049;-46
2023/10/19 00:28:55;;;;;;;29.10;10.93;;;;;;;12.44;100.00;97438.38;5026217;28;20041;-47
2023/10/19 00:31:23;;;;;;;25.65;10.25;;;;;;;12.44;100.00;97427.28;5026537;28;20041;-47
2023/10/19 00:33:57;;;;;;;22.60;9.73;;;;;;;12.43;100.00;97431.28;5029526;28;20049;-47
2023/10/19 00:55:20;;;;;;;38.05;9.13;;;;;;;12.30;100.00;97406.25;5023268;28;20076;-46
2023/10/19 00:57:49;;;;;;;19.48;6.32;;;;;;;12.31;100.00;97396.72;5009472;28;20045;-49
2023/10/19 01:00:29;;;;;;;19.95;6.15;;;;;;;12.31;100.00;97393.19;5026000;28;20609;-49
2023/10/19 01:03:00;;;;;;;17.27;6.82;;;;;;;12.31;100.00;97398.72;5018776;28;20158;-48
2023/10/19 01:05:36;;;;;;;18.55;6.22;;;;;;;12.32;100.00;97389.94;5008108;28;20041;-47
2023/10/19 01:08:19;;;;;;;24.75;8.48;;;;;;;12.33;100.00;97388.75;5024227;28;20057;-48
2023/10/19 01:10:51;;;;;;;24.58;7.57;;;;;;;12.33;100.00;97387.97;5025639;28;20388;-49
2023/10/19 01:13:26;;;;;;;13.75;5.88;;;;;;;12.31;100.00;97388.38;5012826;28;20053;-47
2023/10/19 01:15:54;;;;;;;14.93;5.75;;;;;;;12.30;100.00;97378.53;5021063;28;20045;-50
2023/10/19 01:18:22;;;;;;;17.38;5.63;;;;;;;12.27;100.00;97373.84;5027517;28;20061;-49
2023/10/19 01:20:52;;;;;;;14.52;5.10;;;;;;;12.25;100.00;97381.84;5026588;28;20088;-52
2023/10/19 01:28:25;;;;;;;12.77;6.28;;;;;;;12.20;100.00;97366.47;5001698;28;20483;-49
2023/10/19 01:30:52;;;;;;;17.00;5.80;;;;;;;12.18;100.00;97376.47;5026896;28;20045;-47
2023/10/19 01:33:20;;;;;;;11.27;4.93;;;;;;;12.19;100.00;97366.94;5024654;28;20103;-49
2023/10/19 01:38:33;;;;;;;23.60;6.13;;;;;;;12.18;100.00;97355.06;5023433;28;20065;-50
2023/10/19 01:41:01;;;;;;;18.15;6.00;;;;;;;12.19;100.00;97344.75;5027201;28;20068;-47
2023/10/19 01:43:31;;;;;;;17.60;5.65;;;;;;;12.19;100.00;97345.53;5025982;28;20507;-47
2023/10/19 01:46:04;;;;;;;12.45;5.88;;;;;;;12.21;100.00;97345.09;5026837;28;20042;-46
2023/10/19 01:48:34;;;;;;;17.40;5.53;;;;;;;12.21;100.00;97337.53;5007770;28;20095;-46
2023/10/19 01:51:07;;;;;;;19.00;5.72;;;;;;;12.21;100.00;97340.31;5025914;28;20438;-48
2023/10/19 01:53:39;;;;;;;;;;;;;;;12.19;100.00;97333.66;5025769;28;20132;-49
2023/10/19 01:56:09;;;;;;;13.68;5.65;;;;;;;12.17;100.00;97330.56;5018662;28;19936;-47
2023/10/19 01:58:37;;;;;;;18.85;5.50;;;;;;;12.18;100.00;97321.00;5013779;28;20207;-51
2023/10/19 02:01:14;;;;;;;14.20;5.93;;;;;;;12.17;100.00;97322.22;5008957;28;20045;-51
2023/10/19 02:03:42;;;;;;;12.27;5.22;;;;;;;12.18;100.00;97316.22;5016254;28;20076;-48
2023/10/19 02:06:20;;;;;;;13.88;5.93;;;;;;;12.18;100.00;97301.59;5026776;28;20124;-47
2023/10/19 02:08:51;;;;;;;19.27;6.00;;;;;;;12.19;100.00;97305.94;5025818;28;20574;-51
2023/10/19 02:11:22;;;;;;;14.95;5.80;;;;;;;12.19;100.00;97300.38;5026184;28;20068;-46
2023/10/19 02:13:52;;;;;;;20.40;5.50;;;;;;;12.19;100.00;97292.06;5026623;28;20088;-47
2023/10/19 02:16:23;;;;;;;13.50;5.35;;;;;;;12.19;100.00;97290.06;5024930;28;20123;-46
2023/10/19 02:18:50;;;;;;;12.70;4.65;;;;;;;12.20;100.00;97283.28;5026612;28;20083;-48
2023/10/19 02:21:27;;;;;;;14.43;5.35;;;;;;;12.21;100.00;97276.53;5025367;28;20582;-47
2023/10/19 02:23:53;;;;;;;20.60;6.00;;;;;;;12.20;100.00;97277.00;5014482;28;20442;-47
2023/10/19 02:26:22;;;;;;;16.55;5.90;;;;;;;12.21;100.00;97267.44;5026273;28;20103;-47
2023/10/19 02:28:52;;;;;;;17.10;5.50;;;;;;;12.22;100.00;97260.69;5020224;28;20565;-47
2023/10/19 02:31:23;;;;;;;17.67;4.40;;;;;;;12.21;100.00;97259.09;5024906;28;20050;-47
2023/10/19 02:34:00;;;;;;;14.45;4.82;;;;;;;12.21;100.00;97248.03;5024424;28;20044;-47
2023/10/19 02:36:30;;;;;;;15.52;5.35;;;;;;;12.21;100.00;97242.47;5024483;28;20041;-47
2023/10/19 02:38:58;;;;;;;13.00;5.60;;;;;;;12.22;100.00;97241.25;5025343;28;20132;-48
2023/10/19 02:41:27;;;;;;;13.43;5.72;;;;;;;12.22;100.00;97235.72;5025592;28;20045;-49
2023/10/19 02:44:09;;;;;;;12.63;5.10;;;;;;;12.23;100.00;97228.97;5026324;28;20145;-48
2023/10/19 02:46:41;;;;;;;19.33;5.38;;;;;;;12.22;100.00;97224.63;5025336;28;20049;-48
2023/10/19 02:49:13;;;;;;;12.57;5.38;;;;;;;12.23;100.00;97217.88;5025827;28;20151;-47
2023/10/19 02:51:44;;;;;;;10.00;5.45;;;;;;;12.25;100.00;97209.09;5025239;28;20049;-50
2023/10/19 02:54:20;;;;;;;12.20;5.55;;;;;;;12.27;100.00;97201.88;5019189;28;20049;-49
2023/10/19 02:56:49;;;;;;;15.90;5.00;;;;;;;12.26;100.00;97192.00;5025542;28;20042;-47
2023/10/19 02:59:22;;;;;;;16.25;4.75;;;;;;;12.26;100.00;97178.13;5030237;28;20390;-50
2023/10/19 03:01:51;;;;;;;13.15;5.22;;;;;;;12.28;100.00;97180.47;5107721;22;20044;-44
2023/10/19 03:04:18;;;;;;;15.00;5.15;;;;;;;12.28;100.00;97169.38;5029571;28;20041;-50
2023/10/19 03:06:45;;;;;;;17.30;5.18;;;;;;;12.27;100.00;97163.06;5029773;28;20120;-43
2023/10/19 03:09:20;;;;;;;18.27;5.38;;;;;;;12.27;100.00;97149.19;5028962;28;20487;-43
2023/10/19 03:11:46;;;;;;;18.70;5.40;;;;;;;12.26;100.00;97139.31;5027429;28;20061;-45
2023/10/19 03:14:13;;;;;;;19.05;6.15;;;;;;;12.26;100.00;97133.75;5029362;28;20598;-45
2023/10/19 03:16:43;;;;;;;29.15;6.82;;;;;;;12.27;100.00;97134.53;5022842;28;20045;-46
2023/10/19 03:19:10;;;;;;;16.83;5.80;;;;;;;12.27;100.00;97135.31;5025653;28;20059;-49
2023/10/19 03:21:49;;;;;;;12.32;4.95;;;;;;;12.28;100.00;97131.34;5029816;28;20072;-44
2023/10/19 03:24:23;;;;;;;16.48;5.40;;;;;;;12.29;100.00;97127.34;5028721;28;20514;-48
2023/10/19 03:26:50;;;;;;;17.65;6.05;;;;;;;12.28;100.00;97125.78;5029772;28;20045;-43
2023/10/19 03:29:30;;;;;;;18.77;6.72;;;;;;;12.28;100.00;97123.03;5028228;28;20132;-43
2023/10/19 03:32:01;;;;;;;16.88;5.78;;;;;;;12.30;100.00;97117.81;5041874;28;20041;-45
2023/10/19 03:34:31;;;;;;;23.45;8.05;;;;;;;12.31;100.00;97116.56;5029474;28;20519;-44
2023/10/19 03:37:05;;;;;;;19.25;6.30;;;;;;;12.32;100.00;97104.25;5029469;28;20399;-48
2023/10/19 03:39:34;;;;;;;14.70;7.07;;;;;;;12.32;100.00;97109.81;5028130;28;20045;-49
2023/10/19 03:42:01;;;;;;;19.85;6.95;;;;;;;12.33;100.00;97111.38;5029795;28;20096;-47
2023/10/19 03:44:39;;;;;;;19.92;6.22;;;;;;;12.34;100.00;97103.84;5029388;28;20085;-45
2023/10/19 03:47:11;;;;;;;11.98;6.22;;;;;;;12.35;100.00;97106.16;5027600;28;20076;-48
2023/10/19 03:49:39;;;;;;;17.00;7.07;;;;;;;12.35;100.00;97097.81;5028750;28;20049;-47
2023/10/19 03:54:40;;;;;;;21.67;8.23;;;;;;;12.36;100.00;97093.84;5031828;28;20063;-48
2023/10/19 03:57:12;;;;;;;16.80;7.45;;;;;;;12.39;100.00;97097.72;5028936;28;20112;-48
2023/10/19 03:59:39;;;;;;;17.80;6.55;;;;;;;12.39;100.00;97090.16;5028361;28;20049;-45
2023/10/19 04:02:13;;;;;;;18.38;6.63;;;;;;;12.41;100.00;97079.41;5027246;28;20045;-46
2023/10/19 04:04:43;;;;;;;15.65;7.40;;;;;;;12.40;100.00;97077.84;5009948;28;20576;-44
2023/10/19 04:07:18;;;;;;;17.65;6.45;;;;;;;12.40;100.00;97077.84;5028373;28;20045;-50
2023/10/19 04:09:57;;;;;;;19.80;6.75;;;;;;;12.40;100.00;97075.06;5027587;28;20057;-48
2023/10/19 04:12:28;;;;;;;15.60;6.28;;;;;;;12.39;100.00;97076.28;5028994;28;20839;-46
2023/10/19 04:15:18;;;;;;;17.90;6.40;;;;;;;12.39;100.00;97065.19;5029326;28;20056;-48
2023/10/19 04:17:46;;;;;;;20.55;7.10;;;;;;;12.40;100.00;97060.41;5028891;28;20053;-46
2023/10/19 04:20:28;;;;;;;15.98;5.72;;;;;;;12.39;100.00;97048.53;5028678;28;20053;-46
2023/10/19 04:22:57;;;;;;;19.87;7.13;;;;;;;12.40;100.00;97054.88;5032786;28;20045;-44
2023/10/19 04:25:27;;;;;;;15.30;6.15;;;;;;;12.39;100.00;97048.53;5024707;28;20053;-43
2023/10/19 04:27:54;;;;;;;13.55;6.43;;;;;;;12.40;100.00;97047.34;5028904;28;20580;-44
2023/10/19 04:30:26;;;;;;;14.38;6.32;;;;;;;12.39;100.00;97051.31;5022251;28;20469;-45
2023/10/19 04:32:57;;;;;;;17.42;7.55;;;;;;;12.39;100.00;97043.00;5028155;28;20658;-44
2023/10/19 04:35:29;;;;;;;17.23;6.05;;;;;;;12.39;100.00;97031.91;5027772;28;20505;-44
2023/10/19 04:37:59;;;;;;;14.27;5.78;;;;;;;12.39;100.00;97026.34;5028663;28;20049;-44
2023/10/19 04:40:27;;;;;;;12.57;6.07;;;;;;;12.39;100.00;97018.03;5027554;28;20538;-44
2023/10/19 04:42:54;;;;;;;17.95;5.72;;;;;;;12.40;100.00;97024.34;5027830;28;20053;-46
2023/10/19 04:45:21;;;;;;;10.43;5.22;;;;;;;12.40;100.00;97022.38;5027949;28;20111;-44
2023/10/19 04:47:52;;;;;;;7.88;4.28;;;;;;;12.41;100.00;97023.94;5027279;28;20061;-43
2023/10/19 04:50:20;;;;;;;11.05;4.80;;;;;;;12.40;100.00;97022.38;5028020;28;20041;-46
2023/10/19 04:52:47;;;;;;;8.93;4.20;;;;;;;12.41;100.00;97010.06;5031392;28;20042;-45
2023/10/19 04:55:14;;;;;;;9.85;4.70;;;;;;;12.41;100.00;97015.59;5027599;28;20041;-45
2023/10/19 04:57:41;;;;;;;10.48;4.75;;;;;;;12.42;100.00;97019.91;5027847;28;20037;-44
2023/10/19 05:00:13;;;;;;;15.70;4.65;;;;;;;12.43;100.00;97009.59;5027623;28;20049;-44
2023/10/19 05:02:41;;;;;;;11.48;4.68;;;;;;;12.43;100.00;97004.84;5027842;28;20481;-44
2023/10/19 05:05:08;;;;;;;11.45;5.30;;;;;;;12.44;100.00;97006.38;5029240;28;20057;-44
2023/10/19 05:07:35;;;;;;;13.57;5.40;;;;;;;12.46;100.00;97003.16;5027489;28;20088;-44
2023/10/19 05:10:05;;;;;;;12.07;4.70;;;;;;;12.45;100.00;97002.38;5027790;28;20144;-45
2023/10/19 05:12:32;;;;;;;14.68;6.07;;;;;;;12.47;100.00;96999.91;5025779;28;20045;-51
2023/10/19 05:14:59;;;;;;;17.02;5.60;;;;;;;12.48;100.00;97000.69;5017343;28;20045;-44
2023/10/19 05:17:27;;;;;;;15.43;5.80;;;;;;;12.48;100.00;96992.38;5027179;28;20037;-44
2023/10/19 05:19:54;;;;;;;20.38;6.20;;;;;;;12.48;100.00;96990.38;5026934;28;20045;-45
2023/10/19 05:22:21;;;;;;;12.82;5.75;;;;;;;12.49;100.00;96980.84;5027729;28;20041;-45
2023/10/19 05:24:48;;;;;;;18.45;6.43;;;;;;;12.50;100.00;96979.59;5027893;28;20041;-43
2023/10/19 05:27:15;;;;;;;16.10;5.90;;;;;;;12.51;100.00;96975.63;5026511;28;20060;-45
2023/10/19 05:29:43;;;;;;;12.20;4.93;;;;;;;12.50;100.00;96979.59;5026842;28;20049;-46
2023/10/19 05:32:10;;;;;;;12.13;5.47;;;;;;;12.49;100.00;96969.75;5026579;28;20037;-44
2023/10/19 05:34:37;;;;;;;10.68;5.13;;;;;;;12.49;100.00;96964.22;5030009;28;20053;-44
2023/10/19 05:37:05;;;;;;;11.95;5.10;;;;;;;12.48;100.00;96964.63;5029443;28;20128;-44
2023/10/19 05:39:33;;;;;;;16.08;5.95;;;;;;;12.48;100.00;96968.19;5026468;28;20446;-47
2023/10/19 05:42:00;;;;;;;11.40;4.82;;;;;;;12.49;100.00;96963.44;5026169;28;20045;-49
2023/10/19 05:44:31;;;;;;;15.00;5.57;;;;;;;12.50;100.00;96965.72;5027124;28;20053;-44
2023/10/19 05:46:59;;;;;;;17.00;6.90;;;;;;;12.50;100.00;96967.72;5025272;28;20045;-46
2023/10/19 05:49:28;;;;;;;20.30;6.47;;;;;;;12.50;100.00;96959.41;5026690;28;20041;-48
2023/10/19 05:51:56;;;;;;;19.42;6.68;;;;;;;12.51;100.00;96956.19;5026846;28;20053;-44
2023/10/19 05:54:23;;;;;;;20.77;7.53;;;;;;;12.50;100.00;96954.63;5026411;28;20045;-49
2023/10/19 05:56:51;;;;;;;15.45;6.45;;;;;;;12.51;100.00;96956.19;5025765;28;20053;-44
2023/10/19 05:59:18;;;;;;;24.42;8.10;;;;;;;12.52;100.00;96951.44;5026552;28;20038;-44
2023/10/19 06:01:48;;;;;;;22.65;7.35;;;;;;;12.52;100.00;96941.09;5026037;28;20049;-45
2023/10/19 06:04:16;;;;;;;26.85;8.45;;;;;;;12.50;100.00;96938.00;5028528;28;20041;-46
2023/10/19 06:06:48;;;;;;;22.58;8.07;;;;;;;12.51;100.00;96938.78;5027129;28;20037;-45
2023/10/19 06:09:16;;;;;;;17.52;6.97;;;;;;;12.51;100.00;96928.47;5026314;28;20422;-44
2023/10/19 06:11:44;;;;;;;22.08;8.18;;;;;;;12.50;100.00;96938.00;5026806;28;20108;-44
2023/10/19 06:14:11;;;;;;;27.48;8.60;;;;;;;12.51;100.00;96934.00;5026881;28;20099;-45
2023/10/19 06:16:37;;;;;;;32.55;9.00;;;;;;;12.49;100.00;96925.38;5026185;28;20072;-46
2023/10/19 06:19:05;;;;;;;20.15;7.38;;;;;;;12.48;100.00;96923.81;5026113;28;20128;-45
2023/10/19 06:21:33;;;;;;;26.15;8.60;;;;;;;12.46;100.00;96915.16;5026713;28;20037;-45
2023/10/19 06:24:02;;;;;;;25.40;7.85;;;;;;;12.45;100.00;96919.16;5026623;28;20088;-44
2023/10/19 06:26:29;;;;;;;32.35;8.82;;;;;;;12.45;100.00;96923.91;5026032;28;20042;-45
2023/10/19 06:28:59;;;;;;;32.92;10.32;;;;;;;12.45;100.00;96921.16;5023713;28;20120;-44
2023/10/19 06:31:28;;;;;;;35.58;9.70;;;;;;;12.43;100.00;96918.84;5025412;28;20049;-43
2023/10/19 06:33:57;;;;;;;24.90;8.27;;;;;;;12.45;100.00;96923.91;5027167;28;20049;-45
2023/10/19 06:36:24;;;;;;;28.50;8.38;;;;;;;12.44;100.00;96920.41;5025181;28;20136;-44
2023/10/19 06:38:51;;;;;;;25.95;9.05;;;;;;;12.45;100.00;96918.38;5026922;28;20049;-46
2023/10/19 06:41:18;;;;;;;24.40;8.65;;;;;;;12.46;100.00;96925.47;5022241;28;20043;-43
2023/10/19 06:43:46;;;;;;;20.73;7.00;;;;;;;12.45;100.00;96930.25;5026659;28;20517;-44
2023/10/19 06:46:14;;;;;;;25.73;7.78;;;;;;;12.45;100.00;96935.78;5026317;28;20107;-47
2023/10/19 06:48:42;;;;;;;26.30;7.82;;;;;;;12.45;100.00;96927.47;5026697;28;20508;-48
2023/10/19 06:51:09;;;;;;;28.85;10.00;;;;;;;12.47;100.00;96932.59;5025036;28;20057;-46
2023/10/19 06:53:36;;;;;;;21.90;7.38;;;;;;;12.47;100.00;96933.34;5022593;28;20051;-50
2023/10/19 06:56:04;;;;;;;28.60;8.05;;;;;;;12.48;100.00;96932.13;5025478;28;20050;-47
2023/10/19 06:58:31;;;;;;;30.20;7.88;;;;;;;12.50;100.00;96931.66;5024510;28;20092;-47
2023/10/19 07:01:05;;;;;;;22.10;7.28;;;;;;;12.50;100.00;96928.88;5027034;28;20111;-49
2023/10/19 07:03:32;;;;;;;26.85;8.48;;;;;;;12.51;100.00;96920.13;5026503;28;20149;-51
2023/10/19 07:05:59;;;;;;;26.00;8.55;;;;;;;12.54;100.00;96926.78;5025134;28;20092;-51
2023/10/19 07:08:27;;;;;;;23.83;8.63;;;;;;;12.54;100.00;96929.56;5018626;28;20454;-47
2023/10/19 07:10:54;;;;;;;24.52;7.90;;;;;;;12.54;100.00;96929.56;5032154;28;20053;-49
2023/10/19 07:13:21;;;;;;;39.33;9.20;;;;;;;12.56;100.00;96929.88;5021640;28;20049;-49
2023/10/19 07:15:51;;;;;;;21.25;6.90;;;;;;;12.56;100.00;96925.09;5023272;28;20136;-49
2023/10/19 07:18:18;;;;;;;23.65;7.28;;;;;;;12.57;100.00;96932.22;5023665;28;20135;-47
2023/10/19 07:20:48;;;;;;;26.60;8.00;;;;;;;12.59;100.00;96924.22;5024962;28;20073;-47
2023/10/19 07:23:19;;;;;;;23.58;8.60;;;;;;;12.59;100.00;96924.22;5020602;28;20569;-49
2023/10/19 07:25:48;;;;;;;22.25;7.53;;;;;;;12.61;100.00;96923.75;5025938;28;20053;-46
2023/10/19 07:28:17;;;;;;;40.90;10.40;;;;;;;12.63;100.00;96924.06;5023171;28;20050;-47
2023/10/19 07:30:44;;;;;;;23.67;8.23;;;;;;;12.64;100.00;96918.06;5024309;28;20052;-48
2023/10/19 07:33:18;;;;;;;21.85;9.45;;;;;;;12.65;100.00;96913.31;5026052;28;20059;-47
2023/10/19 07:35:46;;;;;;;21.80;8.85;;;;;;;12.67;100.00;96919.94;5025037;28;20045;-49
2023/10/19 07:38:14;;;;;;;28.08;9.38;;;;;;;12.69;100.00;96922.25;4999679;28;20048;-51
2023/10/19 07:40:43;;;;;;;22.45;8.60;;;;;;;12.69;100.00;96927.81;5022420;28;20368;-46
2023/10/19 07:43:10;;;;;;;26.90;10.15;;;;;;;12.71;100.00;96926.13;5024110;28;20108;-47
2023/10/19 07:45:37;;;;;;;34.03;12.23;;;;;;;12.74;100.00;96925.22;5026847;28;20499;-51
2023/10/19 07:48:10;;;;;;;24.50;8.73;;;;;;;12.77;100.00;96918.78;5028115;28;20069;-46
2023/10/19 07:50:40;;;;;;;20.70;8.27;;;;;;;12.79;100.00;96919.09;5027977;28;20053;-50
2023/10/19 07:53:09;;;;;;;22.42;7.82;;;;;;;12.81;100.00;96916.63;5027567;28;20738;-47
2023/10/19 07:55:37;;;;;;;29.88;8.30;;;;;;;12.83;100.00;96908.66;5029234;28;20057;-54
2023/10/19 07:58:08;;;;;;;19.45;7.47;;;;;;;12.87;100.00;96921.63;5029318;28;20155;-53
2023/10/19 08:00:35;;;;;;;19.17;7.53;;;;;;;12.88;100.00;96917.59;5029228;28;20049;-50
2023/10/19 08:03:04;;;;;;;19.75;7.97;;;;;;;12.88;100.00;96912.84;5029129;28;20081;-48
2023/10/19 08:05:33;;;;;;;22.20;7.95;;;;;;;12.89;100.00;96919.16;5016837;28;20564;-50
2023/10/19 08:08:03;;;;;;;25.02;8.38;;;;;;;12.90;100.00;96912.38;5028602;28;20033;-51
2023/10/19 08:10:30;;;;;;;18.15;6.80;;;;;;;12.89;100.00;96917.19;5028925;28;20451;-47
2023/10/19 08:12:58;;;;;;;25.92;8.10;;;;;;;12.91;100.00;96911.94;5028664;28;20045;-53
2023/10/19 08:15:26;;;;;;;26.23;8.20;;;;;;;12.91;100.00;96908.38;5029098;28;20057;-47
2023/10/19 08:17:56;;;;;;;20.70;7.00;;;;;;;12.92;100.00;96912.72;5044300;28;20033;-51
2023/10/19 08:20:23;;;;;;;21.98;7.18;;;;;;;12.94;100.00;96910.25;5028369;28;20050;-52
2023/10/19 08:22:53;;;;;;;20.52;6.95;;;;;;;12.95;100.00;96906.22;5027061;28;20136;-54
2023/10/19 08:25:21;;;;;;;21.23;6.55;;;;;;;12.97;100.00;96910.13;5027860;28;20991;-52
2023/10/19 08:27:50;;;;;;;19.60;6.93;;;;;;;12.99;100.00;96915.22;5029063;28;20147;-50
2023/10/19 08:30:18;;;;;;;14.77;5.63;;;;;;;13.00;100.00;96903.66;5035049;28;20068;-46
2023/10/19 08:32:48;;;;;;;19.88;7.60;;;;;;;13.02;100.00;96908.75;5028762;28;20060;-47
2023/10/19 08:35:20;;;;;;;22.33;9.40;;;;;;;13.03;100.00;96908.28;5028762;28;20777;-46
2023/10/19 08:37:48;;;;;;;13.82;5.80;;;;;;;13.04;100.00;96897.97;5028682;28;20512;-46
2023/10/19 08:40:15;;;;;;;7.32;3.28;;;;;;;13.05;100.00;96900.28;5028239;28;20054;-46
2023/10/19 08:42:43;;;;;;;9.05;4.18;;;;;;;13.07;100.00;96897.09;5020090;28;20435;-47
2023/10/19 08:45:12;;;;;;;6.00;2.58;;;;;;;13.07;100.00;96895.09;5028749;28;20057;-44
2023/10/19 08:47:59;;;;;;;7.50;3.85;;;;;;;13.07;100.00;96894.31;5025721;28;20140;-46
2023/10/19 08:50:33;;;;;;;8.77;3.65;;;;;;;13.06;100.00;96896.28;5016096;28;20045;-48
2023/10/19 08:53:08;;;;;;;11.32;2.85;;;;;;;13.05;100.00;96894.72;5033357;28;20115;-51
2023/10/19 08:55:35;;;;;;;19.50;5.95;;;;;;;13.05;100.00;96899.53;5027863;28;20464;-48
2023/10/19 08:58:17;;;;;;;71.78;10.20;;;;;;;13.05;100.00;96894.72;5028430;28;20115;-51
2023/10/19 09:00:48;;;;;;;38.45;8.13;;;;;;;13.04;100.00;96892.41;5028116;28;20053;-46
2023/10/19 09:03:16;;;;;;;12.90;3.97;;;;;;;13.04;100.00;96897.97;5026744;28;20140;-47
2023/10/19 09:05:48;;;;;;;30.25;5.68;;;;;;;13.03;100.00;96902.75;5028531;28;20049;-49
2023/10/19 09:08:19;;;;;;;23.17;7.40;;;;;;;13.03;100.00;96897.19;5028323;28;20047;-46
2023/10/19 09:10:48;;;;;;;24.48;8.30;;;;;;;13.05;100.00;96905.06;5027452;28;20072;-47
2023/10/19 09:13:18;;;;;;;11.48;5.00;;;;;;;13.07;100.00;96902.66;5027310;28;20040;-47
2023/10/19 09:15:48;;;;;;;17.40;5.65;;;;;;;13.06;100.00;96906.59;5027287;28;20045;-50
2023/10/19 09:18:22;;;;;;;7.22;3.53;;;;;;;13.07;100.00;96908.19;5027989;28;20052;-45
2023/10/19 09:20:56;;;;;;;18.92;6.07;;;;;;;13.07;100.00;96895.09;5027427;28;20053;-46
2023/10/19 09:23:26;;;;;;;15.43;5.10;;;;;;;13.06;100.00;96901.84;5027762;28;20594;-47
2023/10/19 09:25:53;;;;;;;14.57;4.93;;;;;;;13.08;100.00;96906.97;5027967;28;20051;-47
2023/10/19 09:28:22;;;;;;;27.05;6.53;;;;;;;13.08;100.00;96906.97;5027376;28;20107;-46
2023/10/19 09:30:50;;;;;;;14.30;4.78;;;;;;;13.08;100.00;96899.41;5028028;28;20090;-51
2023/10/19 09:33:18;;;;;;;13.80;4.22;;;;;;;13.08;100.00;96901.44;5027404;28;20577;-46
2023/10/19 09:35:50;;;;;;;16.05;5.32;;;;;;;13.07;100.00;96900.66;5019816;28;20404;-47
2023/10/19 09:38:24;;;;;;;11.82;2.60;;;;;;;13.07;100.00;96900.66;5027340;28;20776;-45
2023/10/19 09:40:55;;;;;;;3.35;1.98;;;;;;;13.07;100.00;96908.19;5015751;28;20111;-46
2023/10/19 09:43:28;;;;;;;6.28;2.50;;;;;;;13.06;100.00;96901.06;5023518;28;20069;-47
2023/10/19 09:46:00;;;;;;;5.93;2.38;;;;;;;13.07;100.00;96897.09;5025759;28;20776;-46
2023/10/19 09:48:28;;;;;;;6.68;2.15;;;;;;;13.10;100.00;96893.41;5009611;28;20442;-45
2023/10/19 09:50:58;;;;;;;26.65;5.32;;;;;;;13.13;100.00;96903.63;5034005;28;20049;-46
2023/10/19 09:53:29;;;;;;;6.72;3.72;;;;;;;13.16;100.00;96906.22;5027021;28;20053;-45
2023/10/19 09:55:58;;;;;;;9.13;5.40;;;;;;;13.22;100.00;96903.63;5015666;28;20508;-46
2023/10/19 09:58:31;;;;;;;4.50;3.10;;;;;;;13.29;100.00;96912.47;5026330;28;20061;-46
2023/10/19 10:01:02;;;;;;;8.48;3.50;;;;;;;13.36;100.00;96914.22;5026619;28;20573;-47
2023/10/19 10:03:46;;;;;;;8.15;3.33;;;;;;;13.42;100.00;96901.28;5013731;28;20052;-47
2023/10/19 10:06:26;;;;;;;7.45;2.78;;;;;;;13.45;100.00;96905.91;5026698;28;20056;-46
2023/10/19 10:08:53;;;;;;;10.27;3.85;;;;;;;13.49;100.00;96912.09;5026977;28;20045;-46
2023/10/19 10:11:27;;;;;;;5.10;3.13;;;;;;;13.55;100.00;96913.06;5026652;28;20060;-45
2023/10/19 10:13:56;;;;;;;8.00;3.83;;;;;;;13.58;100.00;96912.13;4992817;28;20058;-46
2023/10/19 10:16:28;;;;;;;7.35;2.00;;;;;;;13.63;100.00;96908.78;5002493;28;20045;-47
2023/10/19 10:19:01;;;;;;;6.03;2.17;;;;;;;13.66;100.00;96912.63;5024342;28;20049;-45
2023/10/19 10:21:29;;;;;;;6.60;1.50;;;;;;;13.68;100.00;96908.16;5009284;28;20038;-46
2023/10/19 10:24:02;;;;;;;7.57;1.40;;;;;;;13.72;100.00;96913.56;5023794;28;20045;-48
2023/10/19 10:26:58;;;;;;;6.95;1.83;;;;;;;13.72;100.00;96913.56;5016643;28;20056;-46
2023/10/19 10:29:26;;;;;;;5.10;1.50;;;;;;;13.75;100.00;96909.88;5027204;28;20049;-47
2023/10/19 10:31:53;;;;;;;3.22;1.92;;;;;;;13.80;100.00;96914.81;5027411;28;20049;-46
2023/10/19 10:34:42;;;;;;;7.93;1.70;;;;;;;13.87;100.00;96903.44;5024148;28;20049;-52
2023/10/19 10:37:14;;;;;;;3.97;1.45;;;;;;;13.98;100.00;96912.84;5024777;28;20119;-47
2023/10/19 10:39:41;;;;;;;3.15;0.93;;;;;;;14.14;100.00;96911.06;5027575;28;20076;-46
2023/10/19 10:42:09;;;;;;;4.00;1.17;;;;;;;14.29;100.00;96903.63;5001275;28;20038;-45
2023/10/19 10:44:38;;;;;;;5.00;1.70;;;;;;;14.44;100.00;96912.94;5001616;28;20052;-46
2023/10/19 10:47:09;;;;;;;5.20;3.22;;;;;;;14.56;100.00;96914.81;5013331;28;20052;-46
2023/10/19 10:49:59;;;;;;;6.00;2.08;;;;;;;14.74;100.00;96920.38;5016018;28;20061;-47
2023/10/19 10:52:31;;;;;;;4.28;2.10;;;;;;;14.94;100.00;96926.22;5018433;28;20060;-46
2023/10/19 10:55:07;;;;;;;2.78;1.75;;;;;;;15.05;100.00;96922.94;5007161;28;20142;-46
2023/10/19 10:57:34;;;;;;;3.28;1.65;;;;;;;15.07;100.00;96921.22;5020351;28;20641;-49
2023/10/19 11:00:09;;;;;;;4.47;1.50;;;;;;;15.06;100.00;96919.69;5026307;28;20045;-48
2023/10/19 11:02:40;;;;;;;7.47;1.92;;;;;;;14.99;100.00;96920.00;5013923;28;20499;-49
2023/10/19 11:05:11;;;;;;;8.00;1.70;;;;;;;14.93;100.00;96916.31;5020750;28;20128;-46
2023/10/19 11:07:40;;;;;;;11.60;4.47;;;;;;;14.88;100.00;96919.72;5021606;28;20510;-47
2023/10/19 11:10:09;;;;;;;5.13;2.42;;;;;;;14.89;100.00;96915.69;5026309;28;20144;-51
2023/10/19 11:12:37;;;;;;;8.68;3.25;;;;;;;14.87;100.00;96915.41;5026541;28;20396;-47
2023/10/19 11:15:09;;;;;;;4.05;1.98;;;;;;;14.90;100.00;96922.84;5026171;28;20052;-47
2023/10/19 11:17:43;;;;;;;4.85;1.65;;;;;;;14.94;100.00;96922.66;5018103;28;20046;-46
2023/10/19 11:20:21;;;;;;;6.22;1.90;;;;;;;15.03;100.00;96920.63;5021549;28;20049;-48
2023/10/19 11:22:52;;;;;;;6.25;3.42;;;;;;;15.05;100.00;96926.50;5029555;28;20037;-48
2023/10/19 11:25:20;;;;;;;7.00;2.33;;;;;;;15.08;100.00;96920.00;5030050;28;20096;-46
2023/10/19 11:28:17;;;;;;;7.90;3.65;;;;;;;15.08;100.00;96922.00;5010509;28;20052;-47
2023/10/19 11:30:48;;;;;;;3.70;2.30;;;;;;;15.04;100.00;96916.59;5024194;28;20041;-49
2023/10/19 11:33:18;;;;;;;7.07;2.05;;;;;;;14.98;100.00;96910.13;5023291;28;20402;-46
2023/10/19 11:35:45;;;;;;;2.70;1.70;;;;;;;14.96;100.00;96920.16;5022270;28;20053;-49
2023/10/19 11:38:11;;;;;;;5.60;2.38;;;;;;;14.92;100.00;96920.34;5018172;28;20048;-48
2023/10/19 11:40:38;;;;;;;7.90;2.38;;;;;;;14.92;100.00;96914.78;5029958;28;20156;-46
2023/10/19 11:43:05;;;;;;;7.28;2.78;;;;;;;14.96;100.00;96923.72;5024212;28;20042;-46
2023/10/19 11:45:32;;;;;;;11.65;2.50;;;;;;;15.01;100.00;96917.53;5029050;28;20049;-48
2023/10/19 11:47:59;;;;;;;5.15;2.53;;;;;;;15.07;100.00;96915.66;5009608;28;20167;-46
2023/10/19 11:50:26;;;;;;;7.93;2.80;;;;;;;15.13;100.00;96913.81;5016610;28;20172;-49
2023/10/19 11:52:56;;;;;;;11.77;2.72;;;;;;;15.14;100.00;96915.31;5029148;28;20049;-52
2023/10/19 11:55:24;;;;;;;5.60;2.15;;;;;;;15.09;100.00;96918.75;5029086;28;20099;-48
2023/10/19 11:57:52;;;;;;;8.75;2.78;;;;;;;15.17;100.00;96908.81;5029443;28;20045;-47
2023/10/19 12:00:33;;;;;;;14.45;3.05;;;;;;;15.25;100.00;96921.19;5018296;28;20058;-50
2023/10/19 12:03:00;;;;;;;6.22;2.00;;;;;;;15.29;100.00;96914.69;5028123;28;20046;-47
2023/10/19 12:05:28;;;;;;;7.82;1.65;;;;;;;15.31;100.00;96917.75;5029310;28;20053;-50